sensor_id;sensor_type;location;lat;lon;timestamp;P1;durP1;ratioP1;P2;durP2;ratioP2
76417;SDS011;65250;47.602;19.002;2022-11-23T10:25:52;2.47;;;1.70;;
76417;SDS011;65250;47.602;19.002;2022-11-23T10:28:20;3.50;;;1.83;;
76417;SDS011;65250;47.602;19.002;2022-11-23T10:30:52;2.50;;;1.80;;
76417;SDS011;65250;47.602;19.002;2022-11-23T10:36:12;4.25;;;1.80;;
76417;SDS011;65250;47.602;19.002;2022-11-23T10:38:39;3.97;;;2.40;;
76417;SDS011;65250;47.602;19.002;2022-11-23T10:41:12;5.47;;;2.00;;
76417;SDS011;65250;47.602;19.002;2022-11-23T10:54:17;4.13;;;1.90;;
76417;SDS011;65250;47.602;19.002;2022-11-23T10:56:47;3.50;;;2.38;;
76417;SDS011;65250;47.602;19.002;2022-11-23T10:59:25;5.78;;;2.95;;
76417;SDS011;65250;47.602;19.002;2022-11-23T11:02:00;4.68;;;2.60;;
76417;SDS011;65250;47.602;19.002;2022-11-23T11:04:39;4.72;;;2.97;;
76417;SDS011;65250;47.602;19.002;2022-11-23T11:07:48;4.83;;;2.90;;
76417;SDS011;65250;47.602;19.002;2022-11-23T11:09:57;4.72;;;2.50;;
76417;SDS011;65250;47.602;19.002;2022-11-23T11:12:26;4.72;;;3.03;;
76417;SDS011;65250;47.602;19.002;2022-11-23T11:14:54;5.25;;;2.72;;
76417;SDS011;65250;47.602;19.002;2022-11-23T11:17:36;4.30;;;2.78;;
76417;SDS011;65250;47.602;19.002;2022-11-23T11:20:28;4.27;;;2.57;;
76417;SDS011;65250;47.602;19.002;2022-11-23T11:22:57;7.40;;;3.05;;
76417;SDS011;65250;47.602;19.002;2022-11-23T11:25:35;5.15;;;2.95;;
76417;SDS011;65250;47.602;19.002;2022-11-23T11:28:05;4.30;;;3.10;;
76417;SDS011;65250;47.602;19.002;2022-11-23T11:30:47;4.82;;;2.88;;
76417;SDS011;65250;47.602;19.002;2022-11-23T11:33:44;5.13;;;2.93;;
76417;SDS011;65250;47.602;19.002;2022-11-23T11:36:16;6.75;;;3.13;;
76417;SDS011;65250;47.602;19.002;2022-11-23T11:38:45;5.35;;;3.17;;
76417;SDS011;65250;47.602;19.002;2022-11-23T11:41:34;4.47;;;2.60;;
76417;SDS011;65250;47.602;19.002;2022-11-23T11:44:06;4.15;;;2.65;;
76417;SDS011;65250;47.602;19.002;2022-11-23T11:46:36;5.17;;;2.70;;
76417;SDS011;65250;47.602;19.002;2022-11-23T11:49:13;4.53;;;2.50;;
76417;SDS011;65250;47.602;19.002;2022-11-23T11:51:55;3.67;;;2.40;;
76417;SDS011;65250;47.602;19.002;2022-11-23T11:54:37;5.78;;;3.00;;
76417;SDS011;65250;47.602;19.002;2022-11-23T11:57:13;7.45;;;3.83;;
76417;SDS011;65250;47.602;19.002;2022-11-23T11:59:47;5.27;;;2.63;;
76417;SDS011;65250;47.602;19.002;2022-11-23T12:05:06;7.05;;;3.63;;
76417;SDS011;65250;47.602;19.002;2022-11-23T12:07:43;4.03;;;2.60;;
76417;SDS011;65250;47.602;19.002;2022-11-23T12:10:16;5.90;;;2.60;;
76417;SDS011;65250;47.602;19.002;2022-11-23T12:12:45;5.37;;;2.87;;
76417;SDS011;65250;47.602;19.002;2022-11-23T12:15:20;5.07;;;3.10;;
76417;SDS011;65250;47.602;19.002;2022-11-23T12:43:01;4.85;;;2.97;;
76417;SDS011;65250;47.602;19.002;2022-11-23T12:57:20;5.13;;;2.60;;
76417;SDS011;65250;47.602;19.002;2022-11-23T13:23:47;3.72;;;1.98;;
76417;SDS011;65250;47.602;19.002;2022-11-23T13:26:21;5.53;;;2.47;;
76417;SDS011;65250;47.602;19.002;2022-11-23T13:28:49;4.72;;;2.58;;
76417;SDS011;65250;47.602;19.002;2022-11-23T13:31:24;6.53;;;2.40;;
76417;SDS011;65250;47.602;19.002;2022-11-23T13:34:01;3.03;;;1.73;;
76417;SDS011;65250;47.602;19.002;2022-11-23T13:42:09;3.47;;;2.17;;
76417;SDS011;65250;47.602;19.002;2022-11-23T13:44:36;4.90;;;1.80;;
76417;SDS011;65250;47.602;19.002;2022-11-23T13:52:20;4.68;;;2.00;;
76417;SDS011;65250;47.602;19.002;2022-11-23T13:55:17;3.55;;;2.03;;
76417;SDS011;65250;47.602;19.002;2022-11-23T13:57:38;3.78;;;1.98;;
76417;SDS011;65250;47.602;19.002;2022-11-23T14:06:58;3.70;;;2.20;;
76417;SDS011;65250;47.602;19.002;2022-11-23T14:09:28;4.43;;;2.00;;
76417;SDS011;65250;47.602;19.002;2022-11-23T14:12:00;3.92;;;2.50;;
76417;SDS011;65250;47.602;19.002;2022-11-23T14:17:23;3.78;;;2.03;;
76417;SDS011;65250;47.602;19.002;2022-11-23T14:31:03;4.65;;;2.20;;
76417;SDS011;65250;47.602;19.002;2022-11-23T14:33:40;4.72;;;2.10;;
76417;SDS011;65250;47.602;19.002;2022-11-23T14:36:19;4.63;;;2.50;;
76417;SDS011;65250;47.602;19.002;2022-11-23T14:41:37;5.30;;;2.70;;
76417;SDS011;65250;47.602;19.002;2022-11-23T14:44:07;7.82;;;4.28;;
76417;SDS011;65250;47.602;19.002;2022-11-23T14:46:57;11.07;;;5.55;;
76417;SDS011;65250;47.602;19.002;2022-11-23T14:49:25;10.02;;;5.35;;
76417;SDS011;65250;47.602;19.002;2022-11-23T14:51:53;10.30;;;5.70;;
76417;SDS011;65250;47.602;19.002;2022-11-23T14:54:22;13.37;;;7.03;;
76417;SDS011;65250;47.602;19.002;2022-11-23T14:56:49;15.07;;;8.10;;
76417;SDS011;65250;47.602;19.002;2022-11-23T14:59:24;14.40;;;8.77;;
76417;SDS011;65250;47.602;19.002;2022-11-23T15:01:55;9.77;;;6.07;;
76417;SDS011;65250;47.602;19.002;2022-11-23T15:04:24;9.57;;;6.78;;
76417;SDS011;65250;47.602;19.002;2022-11-23T15:06:52;9.97;;;6.63;;
76417;SDS011;65250;47.602;19.002;2022-11-23T15:09:27;10.88;;;7.07;;
76417;SDS011;65250;47.602;19.002;2022-11-23T15:12:07;9.82;;;7.10;;
76417;SDS011;65250;47.602;19.002;2022-11-23T15:14:47;13.02;;;7.72;;
76417;SDS011;65250;47.602;19.002;2022-11-23T15:17:16;18.45;;;8.25;;
76417;SDS011;65250;47.602;19.002;2022-11-23T15:19:55;16.13;;;7.93;;
76417;SDS011;65250;47.602;19.002;2022-11-23T15:22:22;14.18;;;8.43;;
76417;SDS011;65250;47.602;19.002;2022-11-23T15:24:50;20.05;;;9.02;;
76417;SDS011;65250;47.602;19.002;2022-11-23T15:27:20;17.80;;;9.07;;
76417;SDS011;65250;47.602;19.002;2022-11-23T15:29:59;18.65;;;8.77;;
76417;SDS011;65250;47.602;19.002;2022-11-23T15:32:27;17.33;;;9.47;;
76417;SDS011;65250;47.602;19.002;2022-11-23T15:34:59;17.85;;;9.38;;
76417;SDS011;65250;47.602;19.002;2022-11-23T15:37:28;18.27;;;9.75;;
76417;SDS011;65250;47.602;19.002;2022-11-23T15:39:56;18.63;;;10.40;;
76417;SDS011;65250;47.602;19.002;2022-11-23T15:42:23;19.63;;;10.80;;
76417;SDS011;65250;47.602;19.002;2022-11-23T15:44:51;15.97;;;9.83;;
76417;SDS011;65250;47.602;19.002;2022-11-23T15:47:22;22.05;;;10.13;;
76417;SDS011;65250;47.602;19.002;2022-11-23T15:49:59;18.23;;;10.98;;
76417;SDS011;65250;47.602;19.002;2022-11-23T15:52:28;18.38;;;9.98;;
76417;SDS011;65250;47.602;19.002;2022-11-23T15:55:06;17.88;;;10.80;;
76417;SDS011;65250;47.602;19.002;2022-11-23T15:57:39;16.93;;;9.50;;
76417;SDS011;65250;47.602;19.002;2022-11-23T16:00:06;18.13;;;11.07;;
76417;SDS011;65250;47.602;19.002;2022-11-23T16:02:34;18.98;;;9.93;;
76417;SDS011;65250;47.602;19.002;2022-11-23T16:05:03;19.58;;;11.15;;
76417;SDS011;65250;47.602;19.002;2022-11-23T16:07:58;23.00;;;12.23;;
76417;SDS011;65250;47.602;19.002;2022-11-23T16:10:27;24.47;;;13.47;;
76417;SDS011;65250;47.602;19.002;2022-11-23T16:13:04;23.50;;;13.10;;
